Time;durP1;ratioP1;P1;durP2;ratioP2;P2;SDS_P1;SDS_P2;PMS_P1;PMS_P2;Temp;Humidity;BMP_temperature;BMP_pressure;BME280_temperature;BME280_humidity;BME280_pressure;Samples;Min_cycle;Max_cycle;Signal;HPM_P1;HPM_P2
2022/11/04 00:01:45;;;;;;;7.57;5.13;;;12.00;99.90;;;;;;5053380;28;20079;-68
2022/11/04 00:04:13;;;;;;;7.57;4.82;;;11.90;99.90;;;;;;5051790;28;20055;-68
2022/11/04 00:06:39;;;;;;;4.05;2.70;;;12.00;99.90;;;;;;5053170;28;20107;-68
2022/11/04 00:09:07;;;;;;;5.90;1.75;;;11.90;99.90;;;;;;5051801;28;20045;-68
2022/11/04 00:14:18;;;;;;;1.90;1.20;;;11.90;99.90;;;;;;5049311;28;20037;-67
2022/11/04 00:28:41;;;;;;;1.70;1.60;;;11.80;99.90;;;;;;5052714;28;20053;-67
2022/11/04 00:30:27;;;;;;;2.53;1.58;;;11.70;99.90;;;;;;5052407;28;20081;-67
2022/11/04 00:35:37;;;;;;;0.90;0.90;;;11.70;99.90;;;;;;5052450;28;20044;-67
2022/11/04 00:38:02;;;;;;;1.95;0.80;;;11.70;99.90;;;;;;5052707;28;20044;-67
2022/11/04 00:40:28;;;;;;;0.85;0.85;;;11.60;99.90;;;;;;5052194;28;20512;-67
2022/11/04 00:42:53;;;;;;;1.15;1.05;;;11.70;99.90;;;;;;5052250;28;20112;-67
2022/11/04 00:45:19;;;;;;;1.10;1.00;;;11.70;99.90;;;;;;5052234;28;20441;-67
2022/11/04 00:47:44;;;;;;;1.00;0.93;;;11.70;99.90;;;;;;5052445;28;20094;-67
2022/11/04 00:50:10;;;;;;;1.25;0.90;;;11.70;99.90;;;;;;5052419;28;20075;-67
2022/11/04 00:52:35;;;;;;;0.93;0.73;;;11.70;99.90;;;;;;5052066;28;20045;-67
2022/11/04 00:55:01;;;;;;;0.90;0.90;;;11.60;99.90;;;;;;5051806;28;20037;-67
2022/11/04 00:57:26;;;;;;;2.20;0.80;;;11.60;99.90;;;;;;5051924;28;20073;-67
2022/11/04 00:59:52;;;;;;;1.90;0.85;;;11.60;99.90;;;;;;5052001;28;20759;-67
2022/11/04 01:02:18;;;;;;;0.80;0.80;;;11.60;99.90;;;;;;5051923;28;20484;-67
2022/11/04 01:04:43;;;;;;;3.42;0.90;;;11.60;99.90;;;;;;5051728;28;20049;-67
2022/11/04 01:07:09;;;;;;;1.08;1.00;;;11.60;99.90;;;;;;5051753;28;20043;-67
2022/11/04 01:09:34;;;;;;;1.17;1.08;;;11.50;99.90;;;;;;5052014;28;20060;-67
2022/11/04 01:12:00;;;;;;;0.90;0.90;;;11.50;99.90;;;;;;5051815;28;20041;-67
2022/11/04 01:14:25;;;;;;;0.90;0.90;;;11.60;99.90;;;;;;5051492;28;20037;-67
2022/11/04 01:16:51;;;;;;;0.73;0.73;;;11.50;99.90;;;;;;5051840;28;20048;-67
2022/11/04 01:19:17;;;;;;;1.15;1.05;;;11.60;99.90;;;;;;5051757;28;20119;-67
2022/11/04 01:21:43;;;;;;;1.60;0.85;;;11.60;99.90;;;;;;5051860;28;20095;-67
2022/11/04 01:24:09;;;;;;;1.80;1.20;;;11.50;99.90;;;;;;5051445;28;20091;-67
2022/11/04 01:26:35;;;;;;;4.10;1.00;;;11.50;99.90;;;;;;5050130;28;20520;-67
2022/11/04 01:29:01;;;;;;;2.95;0.95;;;11.60;99.90;;;;;;5051431;28;20116;-67
2022/11/04 01:31:28;;;;;;;0.60;0.60;;;11.50;99.90;;;;;;5051460;28;20573;-67
2022/11/04 01:33:55;;;;;;;1.05;0.90;;;11.50;99.90;;;;;;5051198;28;20051;-67
2022/11/04 01:36:21;;;;;;;1.10;1.00;;;11.50;99.90;;;;;;5051350;28;20036;-67
2022/11/04 01:38:48;;;;;;;1.67;0.90;;;11.50;99.90;;;;;;5051182;28;20112;-67
2022/11/04 01:41:26;;;;;;;0.98;0.80;;;11.50;99.90;;;;;;5050117;28;20048;-67
2022/11/04 01:43:53;;;;;;;1.80;0.90;;;11.40;99.90;;;;;;5051196;28;20037;-67
2022/11/04 01:46:38;;;;;;;0.88;0.73;;;11.40;99.90;;;;;;5051497;28;20393;-67
2022/11/04 01:49:28;;;;;;;3.50;1.08;;;11.40;99.90;;;;;;5051096;28;20052;-67
2022/11/04 01:51:59;;;;;;;0.93;0.93;;;11.50;99.90;;;;;;5049974;28;20094;-67
2022/11/04 01:54:26;;;;;;;4.18;1.27;;;11.30;99.90;;;;;;5049449;28;20048;-67
2022/11/04 01:56:53;;;;;;;3.75;0.93;;;11.40;99.90;;;;;;5049866;28;20401;-67
2022/11/04 01:59:28;;;;;;;3.17;1.00;;;11.30;99.90;;;;;;5050742;28;20566;-67
2022/11/04 02:01:54;;;;;;;1.27;1.17;;;11.30;99.90;;;;;;5051020;28;20049;-67
2022/11/04 02:04:26;;;;;;;4.75;1.40;;;11.30;99.90;;;;;;5050840;28;20041;-67
2022/11/04 02:07:04;;;;;;;2.53;1.20;;;11.30;99.90;;;;;;5050925;28;20041;-67
2022/11/04 02:09:32;;;;;;;2.10;1.30;;;11.30;99.90;;;;;;5050911;28;20033;-70
2022/11/04 02:14:43;;;;;;;8.20;1.60;;;11.40;99.90;;;;;;5049321;28;20041;-73
2022/11/04 02:17:42;;;;;;;1.40;1.30;;;11.40;99.90;;;;;;5033084;28;20151;-69
2022/11/04 02:20:32;;;;;;;3.05;1.90;;;11.40;99.90;;;;;;5049454;28;20120;-68
2022/11/04 02:23:26;;;;;;;2.15;1.63;;;11.30;99.90;;;;;;5050557;28;20051;-68
2022/11/04 02:26:18;;;;;;;5.65;2.40;;;11.30;99.90;;;;;;5049024;28;20128;-70
2022/11/04 02:29:01;;;;;;;3.90;2.30;;;11.40;99.90;;;;;;5032744;28;20076;-73
2022/11/04 02:31:49;;;;;;;6.78;3.10;;;11.30;99.90;;;;;;5049392;28;20511;-70
2022/11/04 02:34:47;;;;;;;4.35;2.72;;;11.40;99.90;;;;;;5050304;28;20526;-70
2022/11/04 02:37:39;;;;;;;5.97;2.35;;;11.40;99.90;;;;;;5049231;28;20049;-70
2022/11/04 02:40:16;;;;;;;5.25;2.55;;;11.40;99.90;;;;;;5049170;28;20044;-70
2022/11/04 02:43:25;;;;;;;4.13;2.75;;;11.40;99.90;;;;;;5050785;28;20083;-69
2022/11/04 02:46:01;;;;;;;6.70;3.20;;;11.40;99.90;;;;;;5033086;28;20084;-69
2022/11/04 02:48:39;;;;;;;3.63;3.08;;;11.50;99.90;;;;;;5050495;28;20040;-69
2022/11/04 02:51:30;;;;;;;4.60;2.78;;;11.50;99.90;;;;;;5050676;28;20117;-68
2022/11/04 02:54:07;;;;;;;4.82;3.63;;;11.40;99.90;;;;;;5050333;28;20052;-72
2022/11/04 02:56:36;;;;;;;5.10;3.20;;;11.40;99.90;;;;;;5049505;28;20052;-73
2022/11/04 02:59:28;;;;;;;5.82;3.40;;;11.40;99.90;;;;;;5048917;28;20044;-72
2022/11/04 03:01:56;;;;;;;4.00;3.30;;;11.40;99.90;;;;;;5050582;28;20421;-70
2022/11/04 03:04:30;;;;;;;5.72;3.50;;;11.40;99.90;;;;;;5049889;28;20053;-72
2022/11/04 03:06:57;;;;;;;4.70;3.95;;;11.40;99.90;;;;;;5050632;28;20063;-72
2022/11/04 03:09:24;;;;;;;7.35;4.15;;;11.40;99.90;;;;;;5032738;28;20041;-70
2022/11/04 03:11:57;;;;;;;5.20;4.22;;;11.40;99.90;;;;;;5049348;28;20090;-69
2022/11/04 03:14:47;;;;;;;6.75;3.80;;;11.30;99.90;;;;;;5048681;28;20052;-69
2022/11/04 03:17:28;;;;;;;4.35;3.35;;;11.30;99.90;;;;;;5050342;28;20569;-70
2022/11/04 03:19:57;;;;;;;5.18;3.28;;;11.40;99.90;;;;;;5050224;28;20060;-68
2022/11/04 03:22:29;;;;;;;3.30;2.78;;;11.40;99.90;;;;;;5050472;28;20040;-68
2022/11/04 03:24:55;;;;;;;2.67;2.42;;;11.30;99.90;;;;;;5050030;28;20037;-71
2022/11/04 03:27:29;;;;;;;4.25;2.63;;;11.30;99.90;;;;;;5050155;28;20045;-72
2022/11/04 03:30:00;;;;;;;3.00;2.47;;;11.30;99.90;;;;;;5050145;28;20087;-70
2022/11/04 03:32:53;;;;;;;2.40;2.20;;;11.30;99.90;;;;;;5049997;28;20584;-70
2022/11/04 03:35:19;;;;;;;3.10;1.65;;;11.30;99.90;;;;;;5048714;28;20126;-71
2022/11/04 03:37:47;;;;;;;1.88;1.52;;;11.30;99.90;;;;;;5048997;28;20072;-73
2022/11/04 03:40:13;;;;;;;2.15;1.67;;;11.30;99.90;;;;;;5051685;28;20064;-73
2022/11/04 03:43:03;;;;;;;1.58;1.35;;;11.20;99.90;;;;;;5053647;28;20044;-74
2022/11/04 03:45:29;;;;;;;2.78;1.63;;;11.30;99.90;;;;;;5052287;28;20055;-72
2022/11/04 03:47:56;;;;;;;1.50;1.40;;;11.20;99.90;;;;;;5053518;28;20049;-73
2022/11/04 03:50:31;;;;;;;1.83;1.40;;;11.20;99.90;;;;;;5051939;28;20509;-73
2022/11/04 03:52:57;;;;;;;1.40;1.30;;;11.20;99.90;;;;;;5052150;28;20037;-72
2022/11/04 03:56:16;;;;;;;1.48;1.02;;;11.10;99.90;;;;;;5051888;28;20132;-73
2022/11/04 03:58:50;;;;;;;1.35;0.93;;;11.10;99.90;;;;;;5044732;28;20049;-70
2022/11/04 04:01:49;;;;;;;1.10;1.00;;;11.00;99.90;;;;;;5053290;28;20382;-69
2022/11/04 04:04:37;;;;;;;1.00;1.00;;;11.00;99.90;;;;;;5052914;28;20374;-69
2022/11/04 04:07:23;;;;;;;0.80;0.80;;;11.00;99.90;;;;;;5053030;28;20517;-70
2022/11/04 04:13:09;;;;;;;2.37;0.83;;;10.90;99.90;;;;;;5052839;28;20053;-70
2022/11/04 04:15:56;;;;;;;0.85;0.80;;;10.90;99.90;;;;;;5052741;28;20370;-72
2022/11/04 04:18:29;;;;;;;0.70;0.70;;;10.90;99.90;;;;;;5051526;28;20037;-72
2022/11/04 04:20:58;;;;;;;1.02;0.95;;;10.90;99.90;;;;;;5035143;28;20052;-69
2022/11/04 04:29:01;;;;;;;2.35;0.88;;;10.90;99.90;;;;;;5051382;28;20052;-68
2022/11/04 04:34:13;;;;;;;1.10;1.00;;;10.90;99.90;;;;;;5052535;28;20072;-68
2022/11/04 04:36:50;;;;;;;1.10;1.00;;;10.90;99.90;;;;;;5052847;28;20068;-68
2022/11/04 04:44:59;;;;;;;3.33;0.95;;;10.90;99.90;;;;;;5052292;28;20049;-68
2022/11/04 04:47:33;;;;;;;1.02;1.00;;;10.90;99.90;;;;;;5051307;28;20048;-68
2022/11/04 04:50:00;;;;;;;2.13;1.00;;;11.00;99.90;;;;;;5051820;28;20063;-67
2022/11/04 04:52:29;;;;;;;2.28;1.20;;;11.00;99.90;;;;;;5052329;28;20037;-68
2022/11/04 04:54:55;;;;;;;1.63;1.20;;;10.90;99.90;;;;;;5050539;28;20049;-67
2022/11/04 04:57:21;;;;;;;1.02;1.00;;;10.80;99.90;;;;;;5052361;28;20029;-67
2022/11/04 04:59:46;;;;;;;1.00;1.00;;;10.90;99.90;;;;;;5052061;28;20436;-68
2022/11/04 05:02:12;;;;;;;0.90;0.90;;;10.90;99.90;;;;;;5052093;28;20124;-68
2022/11/04 05:04:38;;;;;;;1.95;1.00;;;10.90;99.90;;;;;;5052050;28;20044;-68
2022/11/04 05:07:05;;;;;;;1.98;1.10;;;10.90;99.90;;;;;;5051970;28;20081;-70
2022/11/04 05:09:31;;;;;;;1.90;1.27;;;10.90;99.90;;;;;;5050645;28;20137;-70
2022/11/04 05:11:56;;;;;;;2.22;1.10;;;10.80;99.90;;;;;;5050635;28;20128;-69
2022/11/04 05:14:22;;;;;;;1.08;1.00;;;10.80;99.90;;;;;;5050195;28;20037;-68
2022/11/04 05:16:48;;;;;;;3.58;1.10;;;10.80;99.90;;;;;;5050568;28;20045;-68
2022/11/04 05:19:13;;;;;;;0.88;0.88;;;10.70;99.90;;;;;;5052006;28;20041;-69
2022/11/04 05:21:39;;;;;;;3.60;1.27;;;10.80;99.90;;;;;;5051631;28;20052;-68
2022/11/04 05:24:04;;;;;;;1.35;0.90;;;10.80;99.90;;;;;;5050022;28;20052;-68
2022/11/04 05:26:30;;;;;;;2.15;0.88;;;10.70;99.90;;;;;;5050402;28;20049;-67
2022/11/04 05:28:55;;;;;;;1.17;0.73;;;10.70;99.90;;;;;;5051606;28;20045;-68
2022/11/04 05:31:21;;;;;;;1.08;1.00;;;10.70;99.90;;;;;;5051582;28;20406;-68
2022/11/04 05:33:46;;;;;;;3.28;0.90;;;10.70;99.90;;;;;;5051471;28;20060;-67
2022/11/04 05:36:14;;;;;;;1.13;0.90;;;10.70;99.90;;;;;;5051494;28;20059;-68
2022/11/04 05:38:40;;;;;;;1.35;0.90;;;10.70;99.90;;;;;;5050243;28;20060;-68
2022/11/04 05:41:08;;;;;;;0.80;0.80;;;10.60;99.90;;;;;;5051521;28;20394;-68
2022/11/04 05:43:34;;;;;;;1.38;1.00;;;10.60;99.90;;;;;;5051328;28;20053;-68
2022/11/04 05:46:00;;;;;;;0.85;0.85;;;10.60;99.90;;;;;;5051182;28;20041;-67
2022/11/04 05:48:26;;;;;;;1.92;1.30;;;10.50;99.90;;;;;;5049780;28;20053;-68
2022/11/04 05:50:52;;;;;;;0.90;0.90;;;10.50;99.90;;;;;;5050104;28;20053;-68
2022/11/04 05:53:17;;;;;;;1.05;0.70;;;10.50;99.90;;;;;;5050961;28;20033;-67
2022/11/04 05:55:43;;;;;;;1.13;1.00;;;10.50;99.90;;;;;;5049639;28;20519;-67
2022/11/04 05:58:09;;;;;;;1.20;1.00;;;10.40;99.90;;;;;;5051269;28;20402;-67
2022/11/04 06:00:34;;;;;;;1.10;1.00;;;10.40;99.90;;;;;;5050972;28;20029;-67
2022/11/04 06:03:00;;;;;;;1.35;0.93;;;10.40;99.90;;;;;;5050659;28;20040;-67
2022/11/04 06:05:26;;;;;;;1.00;1.00;;;10.30;99.90;;;;;;5050624;28;20036;-67
2022/11/04 06:07:52;;;;;;;3.53;0.80;;;10.30;99.90;;;;;;5050974;28;20068;-67
2022/11/04 06:10:18;;;;;;;1.00;0.80;;;10.30;99.90;;;;;;5050708;28;20079;-67
2022/11/04 06:12:43;;;;;;;0.80;0.80;;;10.30;99.90;;;;;;5050932;28;20049;-67
2022/11/04 06:15:09;;;;;;;0.80;0.80;;;10.30;99.90;;;;;;5050440;28;20044;-67
2022/11/04 06:17:35;;;;;;;1.17;1.08;;;10.20;99.90;;;;;;5050854;28;20037;-67
2022/11/04 06:20:00;;;;;;;1.30;1.10;;;10.20;99.90;;;;;;5050602;28;20033;-67
2022/11/04 06:22:26;;;;;;;6.32;1.48;;;10.20;99.90;;;;;;5050783;28;20114;-67
2022/11/04 06:24:51;;;;;;;1.10;1.10;;;10.20;99.90;;;;;;5050727;28;20462;-67
2022/11/04 06:27:17;;;;;;;4.13;1.17;;;10.30;99.90;;;;;;5050717;28;20071;-67
2022/11/04 06:29:43;;;;;;;2.97;1.23;;;10.20;99.90;;;;;;5049468;28;20051;-67
2022/11/04 06:32:14;;;;;;;2.00;1.40;;;10.20;99.90;;;;;;5049242;28;20049;-67
2022/11/04 06:34:40;;;;;;;1.57;1.20;;;10.20;99.90;;;;;;5050570;28;20432;-67
2022/11/04 06:37:06;;;;;;;1.75;1.30;;;10.30;99.90;;;;;;5050737;28;20071;-67
2022/11/04 06:39:31;;;;;;;4.43;1.73;;;10.20;99.90;;;;;;5050712;28;20413;-67
2022/11/04 06:41:57;;;;;;;1.45;1.10;;;10.20;99.90;;;;;;5049159;28;20575;-67
2022/11/04 06:44:22;;;;;;;1.50;1.40;;;10.30;99.90;;;;;;5048876;28;20837;-67
2022/11/04 06:46:49;;;;;;;1.63;1.40;;;10.30;99.90;;;;;;5046908;28;20045;-67
2022/11/04 06:49:17;;;;;;;1.80;1.20;;;10.20;99.90;;;;;;5050072;28;20041;-67
2022/11/04 06:51:43;;;;;;;4.22;1.60;;;10.20;99.90;;;;;;5049987;28;20128;-67
2022/11/04 06:54:09;;;;;;;3.42;2.28;;;10.20;99.90;;;;;;5049404;28;20124;-67
2022/11/04 06:56:34;;;;;;;5.15;2.17;;;10.10;99.90;;;;;;5049512;28;20048;-67
2022/11/04 06:59:00;;;;;;;2.97;1.35;;;10.10;99.90;;;;;;5050282;28;20029;-67
2022/11/04 07:01:29;;;;;;;4.05;1.45;;;10.00;99.90;;;;;;5050424;28;20041;-67
2022/11/04 07:03:58;;;;;;;3.97;1.55;;;10.00;99.90;;;;;;5049855;28;20493;-67
2022/11/04 07:06:24;;;;;;;1.85;1.33;;;10.10;99.90;;;;;;5050517;28;20448;-67
2022/11/04 07:08:51;;;;;;;1.88;1.50;;;10.10;99.90;;;;;;5050100;28;20040;-67
2022/11/04 07:11:19;;;;;;;3.67;1.48;;;10.00;99.90;;;;;;5050224;28;20448;-67
2022/11/04 07:13:46;;;;;;;2.42;1.80;;;10.10;99.90;;;;;;5051059;28;20040;-67
2022/11/04 07:16:11;;;;;;;2.67;1.33;;;10.10;99.90;;;;;;5054170;28;20040;-67
2022/11/04 07:18:37;;;;;;;1.98;1.88;;;10.10;99.90;;;;;;5054033;28;20037;-67
2022/11/04 07:21:02;;;;;;;1.67;1.58;;;10.00;99.90;;;;;;5054174;28;20041;-67
2022/11/04 07:23:28;;;;;;;1.52;1.42;;;10.10;99.90;;;;;;5053938;28;20048;-67
2022/11/04 07:25:59;;;;;;;4.65;1.58;;;10.00;99.90;;;;;;5053848;28;20611;-67
2022/11/04 07:28:25;;;;;;;2.88;1.85;;;10.00;99.90;;;;;;5053955;28;20037;-67
2022/11/04 07:30:50;;;;;;;4.45;2.10;;;10.00;99.90;;;;;;5053589;28;20087;-67
2022/11/04 07:33:17;;;;;;;4.70;2.47;;;10.10;99.90;;;;;;5053981;28;20090;-67
2022/11/04 07:35:44;;;;;;;3.63;2.60;;;10.00;99.90;;;;;;5053503;28;20048;-67
2022/11/04 07:38:09;;;;;;;4.00;2.33;;;10.00;99.90;;;;;;5053975;28;20040;-67
2022/11/04 07:40:35;;;;;;;3.33;2.58;;;10.00;99.90;;;;;;5053690;28;20501;-67
2022/11/04 07:43:01;;;;;;;3.20;2.70;;;9.90;99.90;;;;;;5052192;28;20509;-67
2022/11/04 07:45:26;;;;;;;3.60;2.88;;;10.00;99.90;;;;;;5053462;28;20043;-67
2022/11/04 07:47:52;;;;;;;4.78;2.90;;;10.00;99.90;;;;;;5053445;28;20516;-67
2022/11/04 07:50:17;;;;;;;5.93;3.33;;;10.00;99.90;;;;;;5053256;28;20047;-67
2022/11/04 07:52:43;;;;;;;6.40;3.38;;;10.00;99.90;;;;;;5053251;28;20041;-67
2022/11/04 07:55:09;;;;;;;6.93;3.42;;;10.10;99.90;;;;;;5053280;28;20043;-67
2022/11/04 07:57:35;;;;;;;6.45;4.07;;;10.10;99.90;;;;;;5053143;28;20029;-67
2022/11/04 08:00:03;;;;;;;6.65;4.50;;;10.20;99.90;;;;;;5053043;28;20037;-67
2022/11/04 08:02:29;;;;;;;8.88;4.05;;;10.20;99.90;;;;;;5051754;28;20059;-67
2022/11/04 08:04:54;;;;;;;10.88;4.78;;;10.30;99.90;;;;;;5053147;28;20393;-69
2022/11/04 08:07:20;;;;;;;5.65;4.13;;;10.30;99.90;;;;;;5051913;28;20043;-69
2022/11/04 08:09:45;;;;;;;7.05;4.25;;;10.30;99.90;;;;;;5051729;28;20497;-69
2022/11/04 08:12:11;;;;;;;10.75;4.50;;;10.30;99.90;;;;;;5048364;28;20119;-68
2022/11/04 08:14:37;;;;;;;7.65;4.30;;;10.30;99.90;;;;;;5042543;28;20540;-69
2022/11/04 08:17:02;;;;;;;8.77;4.65;;;10.30;99.90;;;;;;5054480;28;20586;-69
2022/11/04 08:19:28;;;;;;;7.57;5.20;;;10.40;99.90;;;;;;5058663;28;20049;-68
2022/11/04 08:21:53;;;;;;;8.65;5.47;;;10.40;99.90;;;;;;5064679;28;20047;-68
2022/11/04 08:24:19;;;;;;;10.90;5.32;;;10.40;99.90;;;;;;5071874;28;20048;-69
2022/11/04 08:26:45;;;;;;;7.30;4.50;;;10.40;99.90;;;;;;5072801;28;20040;-68
2022/11/04 08:29:10;;;;;;;10.15;5.28;;;10.40;99.90;;;;;;5072504;28;20697;-69
2022/11/04 08:31:36;;;;;;;12.60;5.57;;;10.40;99.90;;;;;;5071217;28;20048;-69
2022/11/04 08:34:02;;;;;;;10.68;5.35;;;10.30;99.90;;;;;;5072446;28;20075;-69
2022/11/04 08:36:31;;;;;;;10.50;5.85;;;10.40;99.90;;;;;;5072801;28;20072;-69
2022/11/04 08:38:57;;;;;;;9.63;5.70;;;10.40;99.90;;;;;;5072560;28;20431;-69
2022/11/04 08:41:28;;;;;;;16.17;6.70;;;10.40;99.90;;;;;;5072629;28;20048;-69
2022/11/04 08:43:56;;;;;;;10.68;6.25;;;10.40;99.90;;;;;;5072185;28;20074;-68
2022/11/04 08:46:21;;;;;;;12.63;6.47;;;10.50;99.90;;;;;;5072656;28;20045;-68
2022/11/04 08:48:48;;;;;;;15.55;6.18;;;10.50;99.90;;;;;;5072138;28;20063;-69
2022/11/04 08:51:20;;;;;;;10.90;7.10;;;10.70;99.90;;;;;;5072169;28;20052;-66
2022/11/04 08:53:46;;;;;;;12.18;7.45;;;10.60;99.90;;;;;;5071868;28;20032;-66
2022/11/04 08:56:22;;;;;;;11.57;7.05;;;10.60;99.90;;;;;;5072398;28;20040;-66
2022/11/04 08:58:48;;;;;;;13.30;7.38;;;10.70;99.90;;;;;;5072045;28;20068;-66
2022/11/04 09:01:15;;;;;;;14.27;7.32;;;10.70;99.90;;;;;;5072232;28;20045;-66
2022/11/04 09:03:41;;;;;;;14.02;8.10;;;10.70;99.90;;;;;;5071995;28;20060;-66
2022/11/04 09:06:11;;;;;;;17.30;8.27;;;10.70;99.90;;;;;;5072013;28;20396;-66
2022/11/04 09:08:38;;;;;;;13.70;8.20;;;10.70;99.90;;;;;;5072131;28;20110;-66
2022/11/04 09:11:06;;;;;;;15.10;8.48;;;10.70;99.90;;;;;;5071747;28;20071;-66
2022/11/04 09:13:32;;;;;;;17.40;9.48;;;10.70;99.90;;;;;;5072030;28;20041;-66
2022/11/04 09:15:57;;;;;;;19.17;10.15;;;10.70;99.90;;;;;;5071493;28;20375;-66
2022/11/04 09:18:23;;;;;;;20.02;10.85;;;10.80;99.90;;;;;;5071906;28;20042;-66
2022/11/04 09:20:48;;;;;;;23.75;10.23;;;10.80;99.90;;;;;;5071629;28;20111;-66
2022/11/04 09:23:14;;;;;;;21.30;10.48;;;10.80;99.90;;;;;;5071886;28;20044;-71
2022/11/04 09:25:39;;;;;;;16.80;10.20;;;10.80;99.90;;;;;;5071039;28;20117;-66
2022/11/04 09:28:05;;;;;;;20.45;10.85;;;10.80;99.90;;;;;;5071734;28;20071;-66
2022/11/04 09:30:31;;;;;;;18.35;10.15;;;10.80;99.90;;;;;;5071531;28;20584;-67
2022/11/04 09:32:57;;;;;;;21.38;11.07;;;10.90;99.90;;;;;;5071187;28;20041;-66
2022/11/04 09:35:23;;;;;;;20.73;11.50;;;10.90;99.90;;;;;;5070945;28;20485;-66
2022/11/04 09:37:49;;;;;;;25.92;11.27;;;10.90;99.90;;;;;;5071477;28;20090;-66
2022/11/04 09:40:17;;;;;;;20.25;10.73;;;10.90;99.90;;;;;;5070945;28;20497;-66
2022/11/04 09:43:06;;;;;;;21.85;11.27;;;10.90;99.90;;;;;;5071293;28;20045;-66
2022/11/04 09:45:32;;;;;;;22.35;11.45;;;10.90;99.90;;;;;;5071194;28;20048;-66
2022/11/04 09:48:01;;;;;;;22.40;11.23;;;10.90;99.90;;;;;;5071080;28;20043;-66
2022/11/04 09:50:50;;;;;;;25.45;12.75;;;10.90;99.90;;;;;;5071305;28;20040;-66
2022/11/04 09:53:21;;;;;;;24.70;12.02;;;11.00;99.90;;;;;;5070560;28;20056;-66
2022/11/04 09:55:57;;;;;;;23.50;13.60;;;11.10;99.90;;;;;;5070932;28;20390;-66
2022/11/04 09:58:22;;;;;;;27.40;12.95;;;11.10;99.90;;;;;;5070822;28;20040;-66
2022/11/04 10:00:59;;;;;;;25.25;12.20;;;11.10;99.90;;;;;;5071359;28;20048;-66
2022/11/04 10:03:43;;;;;;;25.17;12.50;;;11.10;99.90;;;;;;5071161;28;20396;-66
2022/11/04 10:06:21;;;;;;;23.13;12.20;;;11.10;99.90;;;;;;5069598;28;20131;-66
2022/11/04 10:09:28;;;;;;;24.50;12.00;;;11.10;99.90;;;;;;5071062;28;20044;-66
2022/11/04 10:12:38;;;;;;;24.33;11.85;;;11.00;99.90;;;;;;5050332;28;20475;-66
2022/11/04 10:15:22;;;;;;;21.30;11.57;;;11.10;99.90;;;;;;5050758;28;20052;-66
2022/11/04 10:18:35;;;;;;;21.63;10.95;;;11.00;99.90;;;;;;5056184;28;20037;-66
2022/11/04 10:21:28;;;;;;;25.50;10.98;;;11.00;99.90;;;;;;5026648;28;20137;-68
2022/11/04 10:24:14;;;;;;;21.90;12.02;;;11.00;99.90;;;;;;5049546;28;20044;-66
2022/11/04 10:26:45;;;;;;;21.60;11.82;;;11.10;99.90;;;;;;5049222;28;20094;-66
2022/11/04 10:29:29;;;;;;;27.55;13.05;;;11.20;99.90;;;;;;5049100;28;20041;-67
2022/11/04 10:31:58;;;;;;;27.65;13.05;;;11.20;99.90;;;;;;5050050;28;20523;-67
2022/11/04 10:34:44;;;;;;;27.40;13.07;;;11.20;99.90;;;;;;5049384;28;20052;-67
2022/11/04 10:37:13;;;;;;;24.05;12.88;;;11.20;99.90;;;;;;5048908;28;20045;-66
2022/11/04 10:39:43;;;;;;;25.67;12.98;;;11.20;99.90;;;;;;5050368;28;20092;-66
2022/11/04 10:42:16;;;;;;;25.35;13.48;;;11.20;99.90;;;;;;5050113;28;20041;-67
2022/11/04 10:44:43;;;;;;;27.48;13.05;;;11.20;99.90;;;;;;5049247;28;20102;-66
2022/11/04 10:47:21;;;;;;;28.65;13.82;;;11.10;99.90;;;;;;5049731;28;20574;-66
2022/11/04 10:50:12;;;;;;;24.65;13.45;;;11.20;99.90;;;;;;5054241;28;20059;-66
2022/11/04 10:52:38;;;;;;;24.40;12.75;;;11.30;99.90;;;;;;5053797;28;20383;-66
2022/11/04 10:55:30;;;;;;;22.10;12.23;;;11.30;99.90;;;;;;5052686;28;20040;-67
2022/11/04 10:57:58;;;;;;;23.92;12.60;;;11.30;99.90;;;;;;5043572;28;20041;-66
2022/11/04 11:00:39;;;;;;;23.10;12.20;;;11.30;99.90;;;;;;5053619;28;20040;-66
2022/11/04 11:03:23;;;;;;;26.08;12.70;;;11.30;99.90;;;;;;5052096;28;20032;-66
2022/11/04 11:05:51;;;;;;;25.70;12.85;;;11.40;99.90;;;;;;5050924;28;20451;-66
2022/11/04 11:08:29;;;;;;;30.90;12.70;;;11.40;99.90;;;;;;5053301;28;20029;-67
2022/11/04 11:10:55;;;;;;;24.30;12.75;;;11.40;99.90;;;;;;5050188;28;20043;-67
2022/11/04 11:13:27;;;;;;;23.67;12.45;;;11.40;99.90;;;;;;5050367;28;20043;-66
2022/11/04 11:16:10;;;;;;;24.48;12.73;;;11.50;99.90;;;;;;5051766;28;20457;-66
2022/11/04 11:18:37;;;;;;;20.33;11.52;;;11.40;99.90;;;;;;5053867;28;20037;-66
2022/11/04 11:21:09;;;;;;;24.10;12.48;;;11.50;99.90;;;;;;5053868;28;20074;-66
2022/11/04 11:23:46;;;;;;;26.17;12.50;;;11.50;99.90;;;;;;5053392;28;20110;-66
2022/11/04 11:26:20;;;;;;;21.38;11.23;;;11.50;99.90;;;;;;5051716;28;20041;-66
2022/11/04 11:28:58;;;;;;;24.50;11.90;;;11.50;99.90;;;;;;5051060;28;20194;-66
2022/11/04 11:31:25;;;;;;;21.67;12.35;;;11.50;99.90;;;;;;5050651;28;20124;-66
2022/11/04 11:33:56;;;;;;;19.33;11.00;;;11.50;99.90;;;;;;5053138;28;20047;-66
2022/11/04 11:36:31;;;;;;;22.45;12.80;;;11.50;99.90;;;;;;5050369;28;20099;-66
2022/11/04 11:39:13;;;;;;;20.63;12.02;;;11.50;99.90;;;;;;5053028;28;20040;-66
2022/11/04 11:42:05;;;;;;;22.90;11.48;;;11.60;99.90;;;;;;5033719;28;20120;-66
2022/11/04 11:44:43;;;;;;;17.33;9.52;;;11.60;99.90;;;;;;5033483;28;20041;-66
2022/11/04 11:47:26;;;;;;;23.23;11.95;;;11.70;99.90;;;;;;5031431;28;20057;-66
2022/11/04 11:50:14;;;;;;;21.90;12.25;;;11.70;99.90;;;;;;5033423;28;20052;-66
2022/11/04 11:52:41;;;;;;;20.38;10.82;;;11.70;99.90;;;;;;5033335;28;20045;-66
2022/11/04 11:55:22;;;;;;;23.88;10.48;;;11.80;99.90;;;;;;5033392;28;20091;-67
2022/11/04 11:57:55;;;;;;;17.45;10.07;;;11.80;99.90;;;;;;5032188;28;20482;-66
2022/11/04 12:00:27;;;;;;;17.15;10.50;;;11.80;99.90;;;;;;5032199;28;20045;-66
2022/11/04 12:02:56;;;;;;;17.13;9.98;;;11.80;99.90;;;;;;5033433;28;20047;-66
2022/11/04 12:05:31;;;;;;;15.80;9.57;;;11.80;99.90;;;;;;5031763;28;20134;-66
2022/11/04 12:08:26;;;;;;;16.08;9.80;;;11.90;99.90;;;;;;5033096;28;20405;-66
2022/11/04 12:11:08;;;;;;;17.00;9.43;;;11.90;99.90;;;;;;5032834;28;20048;-66
2022/11/04 12:13:46;;;;;;;16.50;9.07;;;11.90;99.90;;;;;;5033157;28;20048;-65
2022/11/04 12:16:41;;;;;;;19.80;9.98;;;11.90;99.90;;;;;;5033396;28;20116;-65
2022/11/04 12:19:20;;;;;;;12.90;8.43;;;12.00;99.90;;;;;;5033071;28;20073;-65
2022/11/04 12:22:12;;;;;;;16.52;9.55;;;12.00;99.90;;;;;;5033293;28;20080;-65
2022/11/04 12:25:03;;;;;;;17.80;9.18;;;12.10;99.90;;;;;;5032794;28;20056;-66
2022/11/04 12:27:49;;;;;;;18.30;8.98;;;12.10;99.90;;;;;;5032719;28;20064;-66
2022/11/04 12:30:20;;;;;;;16.48;9.50;;;12.10;99.90;;;;;;5032768;28;20037;-66
2022/11/04 12:33:15;;;;;;;16.40;9.48;;;12.20;99.90;;;;;;5031402;28;20068;-66
2022/11/04 12:36:03;;;;;;;18.20;9.57;;;12.20;99.90;;;;;;5032107;28;20490;-66
2022/11/04 12:39:00;;;;;;;25.35;11.50;;;12.20;99.90;;;;;;5032441;28;20049;-66
2022/11/04 12:41:44;;;;;;;15.80;9.45;;;12.30;99.90;;;;;;5032472;28;20067;-66
2022/11/04 12:44:30;;;;;;;17.30;9.40;;;12.30;99.90;;;;;;5032368;28;20053;-66
2022/11/04 12:47:18;;;;;;;15.02;9.02;;;12.30;99.90;;;;;;5032361;28;20037;-66
2022/11/04 12:50:02;;;;;;;13.77;7.35;;;12.40;99.90;;;;;;5032152;28;20402;-66
2022/11/04 12:52:46;;;;;;;12.75;7.00;;;12.40;99.90;;;;;;5032187;28;20168;-66
2022/11/04 12:55:54;;;;;;;10.82;7.10;;;12.50;99.90;;;;;;5031829;28;20087;-66
2022/11/04 12:58:35;;;;;;;15.65;7.13;;;12.50;99.90;;;;;;5024388;28;20045;-66
2022/11/04 13:01:07;;;;;;;13.10;7.78;;;12.60;99.90;;;;;;5032313;28;20097;-66
2022/11/04 13:03:48;;;;;;;12.02;5.57;;;12.70;99.90;;;;;;5032344;28;20047;-66
2022/11/04 13:06:39;;;;;;;10.70;5.32;;;12.70;99.90;;;;;;5032330;28;20406;-66
2022/11/04 13:09:12;;;;;;;2.45;1.88;;;12.70;99.90;;;;;;5031876;28;20099;-66
2022/11/04 13:11:50;;;;;;;7.70;1.17;;;12.50;99.90;;;;;;5037048;28;20123;-70
2022/11/04 13:14:28;;;;;;;6.03;1.15;;;12.20;99.90;;;;;;5050405;28;20064;-70
2022/11/04 13:17:02;;;;;;;6.05;1.08;;;12.00;99.90;;;;;;5051980;28;20037;-72
2022/11/04 13:19:37;;;;;;;3.13;0.75;;;11.80;99.90;;;;;;5050755;28;20037;-70
2022/11/04 13:22:10;;;;;;;0.90;0.88;;;11.80;99.90;;;;;;5051965;28;20051;-72
2022/11/04 13:24:54;;;;;;;2.75;1.02;;;11.60;99.90;;;;;;5050211;28;20501;-71
2022/11/04 13:27:26;;;;;;;0.68;0.68;;;11.40;99.90;;;;;;5050526;28;20041;-71
2022/11/04 13:30:14;;;;;;;6.28;1.17;;;11.30;99.90;;;;;;5033818;28;20405;-71
2022/11/04 13:32:50;;;;;;;2.15;1.00;;;11.20;99.90;;;;;;5050306;28;20045;-72
2022/11/04 13:35:43;;;;;;;4.63;1.58;;;11.10;99.90;;;;;;5050111;28;20036;-72
2022/11/04 13:38:20;;;;;;;3.83;1.15;;;11.10;99.90;;;;;;5050446;28;20126;-72
2022/11/04 13:41:19;;;;;;;2.70;0.90;;;10.90;99.90;;;;;;5050278;28;20036;-71
2022/11/04 13:43:51;;;;;;;9.23;1.83;;;10.90;99.90;;;;;;5050100;28;20080;-72
2022/11/04 13:46:18;;;;;;;4.85;1.25;;;10.90;99.90;;;;;;5050052;28;20052;-72